createdAt,value
2022-08-12T00:00:52.094Z,86.91
2022-08-12T00:03:37.502Z,86.96
2022-08-12T00:06:23.198Z,88.09
2022-08-12T00:09:08.996Z,88.92
2022-08-12T00:11:54.741Z,88.21
2022-08-12T00:14:41.018Z,88.72
2022-08-12T00:17:26.770Z,89.02
2022-08-12T00:20:12.109Z,88.08
2022-08-12T00:22:59.047Z,87.81
2022-08-12T00:26:21.531Z,87.66
2022-08-12T00:29:01.607Z,86.94
2022-08-12T00:31:46.856Z,86.99
2022-08-12T00:34:33.432Z,87.95
2022-08-12T00:37:18.751Z,88.70
2022-08-12T00:40:10.879Z,88.92
2022-08-12T00:42:41.362Z,87.96
2022-08-12T00:45:09.147Z,88.33
2022-08-12T00:47:37.725Z,88.98
2022-08-12T00:50:06.460Z,89.22
2022-08-12T00:52:34.498Z,91.15
2022-08-12T00:55:04.989Z,92.48
2022-08-12T00:57:37.332Z,93.18
2022-08-12T01:00:10.591Z,94.43
2022-08-12T01:02:45.580Z,94.85
2022-08-12T01:05:36.778Z,95.33
2022-08-12T01:08:22.368Z,96.60
2022-08-12T01:11:08.686Z,96.00
2022-08-12T01:13:39.188Z,96.21
2022-08-12T01:16:08.123Z,96.21
2022-08-12T01:18:38.367Z,95.87
2022-08-12T01:21:41.770Z,96.00
2022-08-12T01:24:31.870Z,95.98
2022-08-12T01:27:01.288Z,96.05
2022-08-12T01:29:32.824Z,97.27
2022-08-12T01:32:05.356Z,97.44
2022-08-12T01:34:37.588Z,95.77
2022-08-12T01:37:07.583Z,97.04
2022-08-12T01:40:31.664Z,97.68
2022-08-12T01:42:33.516Z,97.39
2022-08-12T01:45:01.899Z,97.85
2022-08-12T01:47:30.398Z,98.26
2022-08-12T01:50:09.031Z,97.52
2022-08-12T01:53:02.677Z,97.30
2022-08-12T01:55:35.201Z,98.29
2022-08-12T01:58:29.868Z,98.50
2022-08-12T02:01:08.875Z,97.89
2022-08-12T02:03:59.935Z,98.60
2022-08-12T02:06:52.346Z,98.79
2022-08-12T02:09:43.187Z,98.32
2022-08-12T02:12:38.846Z,97.80
2022-08-12T02:15:31.314Z,98.44
2022-08-12T02:18:10.387Z,98.37
2022-08-12T02:20:53.167Z,98.90
2022-08-12T02:23:23.328Z,100.00
2022-08-12T02:25:55.525Z,100.00
2022-08-12T02:28:22.402Z,100.00
2022-08-12T02:30:49.279Z,100.00
2022-08-12T02:33:18.077Z,100.00
2022-08-12T02:35:45.076Z,100.00
2022-08-12T02:38:12.712Z,100.00
2022-08-12T02:40:45.354Z,100.00
2022-08-12T02:43:19.417Z,100.00
2022-08-12T02:45:56.691Z,100.00
2022-08-12T02:48:30.282Z,100.00
2022-08-12T02:51:03.697Z,100.00
2022-08-12T02:53:32.319Z,100.00
2022-08-12T02:56:03.078Z,100.00
2022-08-12T02:58:35.449Z,100.00
2022-08-12T03:01:04.674Z,100.00
2022-08-12T03:03:34.405Z,100.00
2022-08-12T03:06:09.094Z,100.00
2022-08-12T03:08:42.285Z,100.00
2022-08-12T03:11:42.294Z,100.00
2022-08-12T03:14:14.229Z,100.00
2022-08-12T03:16:41.726Z,100.00
2022-08-12T03:19:08.686Z,100.00
2022-08-12T03:22:05.707Z,100.00
2022-08-12T03:24:27.398Z,100.00
2022-08-12T03:26:55.361Z,100.00
2022-08-12T03:29:30.951Z,100.00
2022-08-12T03:32:04.478Z,100.00
2022-08-12T03:34:35.327Z,100.00
2022-08-12T03:37:07.715Z,100.00
2022-08-12T03:39:39.706Z,100.00
2022-08-12T03:42:25.823Z,100.00
2022-08-12T03:45:25.771Z,100.00
2022-08-12T03:48:32.401Z,100.00
2022-08-12T03:51:18.705Z,100.00
2022-08-12T03:54:04.986Z,100.00
2022-08-12T03:56:52.290Z,100.00
2022-08-12T03:59:38.071Z,100.00
2022-08-12T04:02:04.906Z,100.00
2022-08-12T04:04:34.680Z,100.00
2022-08-12T04:07:03.651Z,100.00
2022-08-12T04:09:30.611Z,100.00
2022-08-12T04:12:15.791Z,100.00
2022-08-12T04:14:42.444Z,100.00
2022-08-12T04:17:09.288Z,100.00
2022-08-12T04:19:37.224Z,100.00
2022-08-12T04:22:04.231Z,100.00
2022-08-12T04:24:35.850Z,100.00
2022-08-12T04:27:06.962Z,100.00
2022-08-12T04:30:29.374Z,100.00
2022-08-12T04:32:21.309Z,100.00
2022-08-12T04:34:47.902Z,100.00
2022-08-12T04:37:16.605Z,100.00
2022-08-12T04:39:44.833Z,100.00
2022-08-12T04:42:11.811Z,100.00
2022-08-12T04:44:38.431Z,100.00
2022-08-12T04:47:05.238Z,100.00
2022-08-12T04:49:34.742Z,100.00
2022-08-12T04:52:02.755Z,100.00
2022-08-12T04:54:30.827Z,100.00
2022-08-12T04:57:03.463Z,100.00
2022-08-12T04:59:47.329Z,100.00
2022-08-12T05:02:20.840Z,100.00
2022-08-12T05:04:53.324Z,100.00
2022-08-12T05:07:20.700Z,100.00
2022-08-12T05:10:00.204Z,100.00
2022-08-12T05:12:44.931Z,100.00
2022-08-12T05:15:19.418Z,100.00
2022-08-12T05:17:55.861Z,100.00
2022-08-12T05:20:25.815Z,100.00
2022-08-12T05:23:12.168Z,100.00
2022-08-12T05:25:44.706Z,100.00
2022-08-12T05:28:12.988Z,100.00
2022-08-12T05:30:42.489Z,100.00
2022-08-12T05:33:10.363Z,100.00
2022-08-12T05:35:43.175Z,100.00
2022-08-12T05:38:29.939Z,100.00
2022-08-12T05:40:56.834Z,98.14
2022-08-12T05:43:23.492Z,97.22
2022-08-12T05:45:50.596Z,96.90
2022-08-12T05:48:17.490Z,94.32
2022-08-12T05:50:45.560Z,93.73
2022-08-12T05:53:13.207Z,93.01
2022-08-12T05:55:40.624Z,93.59
2022-08-12T05:58:10.104Z,92.91
2022-08-12T06:00:37.059Z,91.59
2022-08-12T06:03:05.979Z,90.38
2022-08-12T06:05:55.396Z,89.76
2022-08-12T06:08:22.061Z,89.04
2022-08-12T06:10:50.408Z,88.16
2022-08-12T06:13:28.286Z,88.55
2022-08-12T06:16:07.275Z,87.29
2022-08-12T06:18:34.388Z,87.38
2022-08-12T06:21:01.923Z,85.08
2022-08-12T06:23:29.840Z,83.75
2022-08-12T06:25:58.257Z,82.84
2022-08-12T06:28:25.997Z,82.36
2022-08-12T06:31:22.199Z,80.95
2022-08-12T06:34:00.738Z,79.59
2022-08-12T06:36:33.536Z,78.76
2022-08-12T06:39:01.000Z,76.79
2022-08-12T06:42:30.604Z,75.58
2022-08-12T06:44:33.082Z,71.61
2022-08-12T06:47:00.095Z,73.76
2022-08-12T06:49:28.325Z,70.85
2022-08-12T06:51:56.675Z,71.68
2022-08-12T06:54:29.847Z,71.67
2022-08-12T06:57:05.269Z,70.42
2022-08-12T06:59:46.583Z,67.81
2022-08-12T07:02:13.200Z,62.84
2022-08-12T07:04:39.947Z,62.59
2022-08-12T07:07:08.708Z,60.48
2022-08-12T07:10:05.260Z,61.11
2022-08-12T07:12:22.544Z,62.33
2022-08-12T07:14:52.683Z,60.55
2022-08-12T07:17:19.303Z,59.51
2022-08-12T07:19:48.705Z,59.70
2022-08-12T07:22:16.124Z,55.18
2022-08-12T07:24:42.789Z,54.31
2022-08-12T07:27:09.655Z,55.01
2022-08-12T07:29:57.994Z,53.45
2022-08-12T07:32:25.586Z,52.51
2022-08-12T07:34:56.352Z,52.74
2022-08-12T07:37:24.158Z,52.39
2022-08-12T07:39:59.539Z,50.03
2022-08-12T07:42:28.456Z,50.97
2022-08-12T07:44:55.944Z,48.17
2022-08-12T07:47:23.048Z,46.64
2022-08-12T07:50:05.610Z,48.14
2022-08-12T07:52:44.543Z,46.31
2022-08-12T07:55:12.426Z,45.19
2022-08-12T07:57:50.415Z,47.43
2022-08-12T08:00:18.260Z,47.63
2022-08-12T08:02:45.029Z,46.23
2022-08-12T08:05:15.511Z,45.43
2022-08-12T08:07:42.536Z,45.03
2022-08-12T08:10:11.506Z,43.52
2022-08-12T08:12:53.913Z,43.95
2022-08-12T08:15:51.137Z,43.82
2022-08-12T08:18:26.187Z,43.75
2022-08-12T08:20:54.388Z,42.84
2022-08-12T08:23:21.029Z,41.66
2022-08-12T08:25:50.006Z,40.76
2022-08-12T08:28:19.471Z,40.84
2022-08-12T08:30:47.735Z,42.43
2022-08-12T08:33:24.670Z,40.71
2022-08-12T08:36:06.746Z,41.17
2022-08-12T08:38:41.687Z,41.55
2022-08-12T08:42:17.302Z,40.27
2022-08-12T08:44:29.420Z,40.22
2022-08-12T08:46:55.995Z,39.45
2022-08-12T08:49:23.255Z,39.41
2022-08-12T08:51:50.149Z,38.41
2022-08-12T08:54:16.949Z,37.87
2022-08-12T08:56:44.362Z,39.33
2022-08-12T08:59:12.197Z,38.19
2022-08-12T09:01:39.782Z,39.14
2022-08-12T09:05:13.409Z,37.98
2022-08-12T09:06:58.477Z,37.84
2022-08-12T09:09:28.345Z,36.31
2022-08-12T09:12:32.393Z,36.94
2022-08-12T09:14:59.091Z,37.11
2022-08-12T09:17:26.687Z,36.75
2022-08-12T09:20:09.456Z,37.31
2022-08-12T09:22:36.081Z,38.10
2022-08-12T09:25:07.013Z,36.66
2022-08-12T09:28:04.229Z,37.16
2022-08-12T09:30:42.197Z,36.63
2022-08-12T09:33:14.860Z,35.93
2022-08-12T09:36:03.351Z,37.52
2022-08-12T09:38:33.486Z,37.18
2022-08-12T09:42:33.228Z,36.68
2022-08-12T09:44:38.433Z,35.74
2022-08-12T09:46:58.337Z,36.33
2022-08-12T09:49:25.266Z,36.35
2022-08-12T09:51:55.456Z,37.34
2022-08-12T09:54:32.593Z,36.59
2022-08-12T09:58:46.788Z,36.41
2022-08-12T10:00:15.620Z,35.90
2022-08-12T10:03:06.053Z,35.36
2022-08-12T10:06:26.434Z,36.71
2022-08-12T10:08:27.447Z,37.55
2022-08-12T10:11:20.492Z,37.61
2022-08-12T10:13:49.943Z,39.29
2022-08-12T10:16:39.187Z,39.16
2022-08-12T10:19:06.176Z,38.61
2022-08-12T10:21:44.989Z,37.95
2022-08-12T10:24:15.646Z,38.31
2022-08-12T10:27:05.801Z,35.73
2022-08-12T10:30:03.963Z,37.13
2022-08-12T10:32:42.848Z,36.67
2022-08-12T10:35:15.009Z,36.96
2022-08-12T10:38:34.382Z,38.20
2022-08-12T10:40:33.449Z,37.93
2022-08-12T10:43:20.462Z,38.87
2022-08-12T10:45:53.209Z,40.08
2022-08-12T10:48:27.081Z,39.29
2022-08-12T10:52:03.313Z,38.07
2022-08-12T10:53:54.215Z,37.42
2022-08-12T10:56:27.680Z,37.71
2022-08-12T10:59:01.766Z,37.16
2022-08-12T11:04:17.995Z,36.10
2022-08-12T11:04:27.796Z,37.47
2022-08-12T11:07:07.998Z,36.48
2022-08-12T11:10:00.071Z,37.15
2022-08-12T11:12:56.078Z,37.66
2022-08-12T11:15:20.838Z,37.55
2022-08-12T11:17:53.599Z,36.67
2022-08-12T11:20:24.386Z,36.51
2022-08-12T11:22:59.695Z,36.29
2022-08-12T11:25:55.533Z,34.53
2022-08-12T11:28:15.044Z,34.50
2022-08-12T11:30:43.666Z,35.61
2022-08-12T11:33:12.405Z,35.47
2022-08-12T11:35:53.091Z,35.78
2022-08-12T11:38:22.995Z,34.84
2022-08-12T11:40:49.901Z,31.88
2022-08-12T11:43:18.896Z,31.53
2022-08-12T11:45:47.126Z,31.35
2022-08-12T11:48:15.247Z,28.57
2022-08-12T11:50:45.103Z,28.32
2022-08-12T11:53:58.256Z,28.83
2022-08-12T11:55:58.446Z,27.83
2022-08-12T11:59:44.427Z,27.40
2022-08-12T12:03:58.422Z,25.75
2022-08-12T12:06:25.385Z,25.81
2022-08-12T12:08:53.950Z,25.55
2022-08-12T12:11:22.533Z,24.80
2022-08-12T12:14:08.175Z,23.13
2022-08-12T12:16:38.349Z,23.35
2022-08-12T12:19:08.819Z,23.86
2022-08-12T12:21:47.574Z,24.32
2022-08-12T12:24:21.463Z,23.88
2022-08-12T12:27:00.442Z,23.89
2022-08-12T12:30:18.340Z,24.09
2022-08-12T12:32:16.593Z,23.95
2022-08-12T12:35:14.312Z,22.89
2022-08-12T12:38:04.040Z,22.22
2022-08-12T12:40:16.527Z,21.58
2022-08-12T12:42:57.738Z,22.12
2022-08-12T12:45:33.334Z,22.16
2022-08-12T12:48:04.448Z,22.12
2022-08-12T12:50:45.121Z,20.56
2022-08-12T12:54:08.888Z,20.85
2022-08-12T12:56:13.432Z,22.21
2022-08-12T12:58:43.489Z,22.30
2022-08-12T13:01:28.033Z,23.16
2022-08-12T13:04:01.978Z,22.99
2022-08-12T13:06:31.748Z,21.65
2022-08-12T13:09:02.994Z,19.85
2022-08-12T13:11:40.891Z,21.00
2022-08-12T13:14:27.975Z,20.25
2022-08-12T13:16:57.416Z,20.22
2022-08-12T13:19:36.571Z,22.18
2022-08-12T13:22:19.631Z,20.28
2022-08-12T13:24:55.663Z,20.11
2022-08-12T13:27:35.119Z,19.93
2022-08-12T13:30:10.717Z,19.67
2022-08-12T13:32:38.619Z,19.78
2022-08-12T13:35:19.817Z,19.87
2022-08-12T13:37:55.669Z,20.71
2022-08-12T13:40:33.840Z,20.51
2022-08-12T13:43:02.074Z,19.91
2022-08-12T13:45:30.831Z,19.48
2022-08-12T13:48:07.450Z,20.19
2022-08-12T13:50:37.760Z,21.80
2022-08-12T13:53:23.689Z,20.02
2022-08-12T13:55:59.890Z,19.52
2022-08-12T13:58:30.511Z,19.45
2022-08-12T14:00:58.258Z,19.01
2022-08-12T14:03:27.986Z,18.95
2022-08-12T14:05:57.920Z,18.06
2022-08-12T14:08:34.649Z,19.35
2022-08-12T14:11:02.222Z,17.51
2022-08-12T14:14:02.801Z,17.93
2022-08-12T14:16:48.421Z,18.98
2022-08-12T14:19:18.326Z,18.98
2022-08-12T14:21:59.354Z,18.51
2022-08-12T14:24:27.359Z,18.84
2022-08-12T14:27:01.874Z,19.32
2022-08-12T14:29:56.323Z,18.51
2022-08-12T14:32:17.535Z,18.08
2022-08-12T14:34:46.873Z,21.04
2022-08-12T14:37:55.548Z,23.74
2022-08-12T14:40:01.090Z,24.63
2022-08-12T14:42:28.250Z,26.54
2022-08-12T14:45:01.262Z,26.77
2022-08-12T14:47:29.291Z,24.94
2022-08-12T14:50:41.120Z,22.22
2022-08-12T14:54:55.983Z,20.46
2022-08-12T14:58:25.318Z,18.00
2022-08-12T15:01:11.419Z,18.06
2022-08-12T15:03:52.626Z,18.50
2022-08-12T15:06:44.102Z,18.85
2022-08-12T15:09:11.989Z,18.56
2022-08-12T15:11:54.962Z,19.46
2022-08-12T15:14:25.389Z,19.50
2022-08-12T15:16:53.028Z,18.89
2022-08-12T15:20:12.169Z,19.44
2022-08-12T15:22:36.973Z,22.26
2022-08-12T15:24:53.732Z,25.48
2022-08-12T15:27:22.534Z,24.65
2022-08-12T15:29:58.661Z,23.64
2022-08-12T15:32:31.855Z,20.53
2022-08-12T15:35:02.642Z,20.97
2022-08-12T15:38:09.275Z,20.85
2022-08-12T15:40:30.462Z,19.25
2022-08-12T15:43:04.113Z,18.62
2022-08-12T15:45:41.869Z,18.55
2022-08-12T15:48:16.831Z,18.89
2022-08-12T15:50:53.063Z,19.03
2022-08-12T15:53:54.925Z,19.46
2022-08-12T15:56:29.627Z,19.63
2022-08-12T15:58:59.035Z,20.71
2022-08-12T16:01:34.068Z,22.20
2022-08-12T16:04:03.005Z,25.58
2022-08-12T16:09:56.580Z,27.41
2022-08-12T16:12:11.991Z,29.54
2022-08-12T16:14:39.246Z,29.56
2022-08-12T16:17:08.984Z,28.79
2022-08-12T16:20:03.636Z,27.45
2022-08-12T16:22:25.712Z,25.87
2022-08-12T16:24:54.043Z,24.81
2022-08-12T16:27:23.459Z,23.40
2022-08-12T16:29:57.120Z,22.80
2022-08-12T16:32:31.488Z,22.09
2022-08-12T16:34:59.829Z,22.20
2022-08-12T16:37:33.040Z,23.11
2022-08-12T16:40:14.563Z,23.82
2022-08-12T16:42:54.118Z,24.83
2022-08-12T16:46:04.248Z,26.01
2022-08-12T16:48:35.017Z,27.91
2022-08-12T16:51:10.168Z,29.01
2022-08-12T16:53:44.007Z,30.58
2022-08-12T16:56:17.463Z,32.49
2022-08-12T16:58:47.161Z,34.19
2022-08-12T17:01:16.409Z,34.81
2022-08-12T17:03:52.721Z,35.24
2022-08-12T17:06:27.494Z,35.83
2022-08-12T17:09:03.721Z,36.19
2022-08-12T17:11:38.806Z,36.34
2022-08-12T17:14:08.837Z,37.09
2022-08-12T17:16:37.587Z,36.89
2022-08-12T17:19:09.312Z,37.07
2022-08-12T17:21:40.161Z,37.20
2022-08-12T17:24:15.286Z,37.45
2022-08-12T17:26:49.110Z,38.04
2022-08-12T17:29:19.455Z,38.16
2022-08-12T17:32:02.900Z,38.32
2022-08-12T17:34:50.402Z,39.33
2022-08-12T17:37:17.551Z,39.13
2022-08-12T17:40:13.611Z,39.20
2022-08-12T17:42:35.237Z,39.22
2022-08-12T17:45:17.292Z,40.30
2022-08-12T17:48:04.964Z,40.40
2022-08-12T17:50:41.531Z,40.40
2022-08-12T17:53:10.778Z,41.46
2022-08-12T17:55:47.351Z,41.69
2022-08-12T17:58:35.629Z,41.50
2022-08-12T18:01:05.846Z,41.46
2022-08-12T18:04:04.601Z,41.35
2022-08-12T18:06:27.874Z,41.33
2022-08-12T18:08:58.659Z,41.72
2022-08-12T18:12:03.870Z,41.63
2022-08-12T18:14:32.805Z,41.68
2022-08-12T18:17:05.721Z,42.25
2022-08-12T18:20:05.082Z,42.34
2022-08-12T18:22:29.055Z,42.43
2022-08-12T18:25:04.716Z,42.92
2022-08-12T18:27:44.090Z,42.92
2022-08-12T18:30:13.430Z,43.94
2022-08-12T18:32:58.605Z,44.46
2022-08-12T18:35:47.365Z,44.61
2022-08-12T18:38:19.805Z,44.81
2022-08-12T18:41:07.387Z,46.03
2022-08-12T18:43:59.471Z,45.54
2022-08-12T18:46:32.060Z,46.38
2022-08-12T18:49:18.894Z,47.27
2022-08-12T18:52:04.035Z,48.04
2022-08-12T18:54:34.976Z,47.85
2022-08-12T18:57:19.486Z,49.74
2022-08-12T19:00:01.334Z,49.58
2022-08-12T19:02:33.964Z,50.91
2022-08-12T19:05:09.831Z,51.19
2022-08-12T19:07:49.275Z,52.01
2022-08-12T19:10:25.766Z,52.69
2022-08-12T19:13:15.645Z,53.08
2022-08-12T19:15:47.977Z,54.00
2022-08-12T19:18:15.002Z,53.80
2022-08-12T19:20:44.050Z,54.20
2022-08-12T19:23:16.575Z,54.54
2022-08-12T19:26:01.516Z,55.60
2022-08-12T19:28:35.474Z,56.24
2022-08-12T19:31:44.699Z,56.70
2022-08-12T19:35:24.432Z,56.84
2022-08-12T19:37:27.063Z,57.67
2022-08-12T19:40:09.872Z,59.77
2022-08-12T19:42:53.806Z,59.97
2022-08-12T19:45:24.475Z,60.57
2022-08-12T19:48:16.959Z,62.05
2022-08-12T19:50:50.078Z,62.38
2022-08-12T19:53:19.773Z,63.98
2022-08-12T19:55:50.820Z,64.05
2022-08-12T19:58:19.663Z,65.48
2022-08-12T20:00:53.302Z,66.44
2022-08-12T20:03:40.411Z,67.63
2022-08-12T20:06:14.260Z,68.28
2022-08-12T20:08:48.880Z,68.91
2022-08-12T20:12:11.510Z,69.77
2022-08-12T20:14:06.659Z,70.90
2022-08-12T20:17:01.950Z,70.81
2022-08-12T20:19:53.013Z,71.35
2022-08-12T20:22:23.472Z,71.79
2022-08-12T20:24:51.046Z,71.85
2022-08-12T20:27:29.224Z,72.73
2022-08-12T20:30:11.512Z,73.01
2022-08-12T20:33:00.719Z,72.05
2022-08-12T20:35:38.942Z,72.98
2022-08-12T20:38:26.588Z,73.90
2022-08-12T20:40:55.590Z,75.08
2022-08-12T20:43:24.001Z,75.34
2022-08-12T20:45:57.191Z,75.40
2022-08-12T20:48:25.471Z,76.10
2022-08-12T20:50:55.464Z,75.60
2022-08-12T20:53:26.514Z,76.43
2022-08-12T20:56:00.434Z,77.14
2022-08-12T20:58:28.304Z,76.55
2022-08-12T21:00:57.227Z,76.77
2022-08-12T21:03:52.739Z,76.47
2022-08-12T21:06:43.488Z,76.96
2022-08-12T21:09:10.235Z,76.95
2022-08-12T21:11:37.642Z,76.23
2022-08-12T21:14:04.977Z,77.14
2022-08-12T21:16:38.968Z,77.94
2022-08-12T21:19:08.049Z,77.47
2022-08-12T21:21:50.434Z,78.13
2022-08-12T21:24:17.817Z,78.06
2022-08-12T21:26:53.369Z,78.64
2022-08-12T21:29:21.217Z,80.10
2022-08-12T21:32:39.328Z,80.64
2022-08-12T21:34:36.283Z,81.31
2022-08-12T21:37:13.123Z,80.45
2022-08-12T21:39:53.388Z,81.93
2022-08-12T21:42:27.822Z,82.17
2022-08-12T21:45:46.568Z,83.44
2022-08-12T21:47:43.325Z,84.44
2022-08-12T21:50:10.227Z,85.99
2022-08-12T21:52:42.194Z,86.10
2022-08-12T21:55:18.861Z,86.83
2022-08-12T21:57:54.962Z,86.95
2022-08-12T22:00:34.349Z,87.29
2022-08-12T22:04:11.007Z,88.55
2022-08-12T22:06:25.850Z,89.42
2022-08-12T22:09:03.804Z,90.16
2022-08-12T22:11:41.660Z,90.63
2022-08-12T22:14:17.892Z,91.82
2022-08-12T22:16:50.375Z,92.26
2022-08-12T22:19:19.563Z,92.98
2022-08-12T22:21:52.153Z,92.97
2022-08-12T22:24:26.622Z,92.99
2022-08-12T22:26:57.305Z,93.76
2022-08-12T22:29:42.487Z,93.15
2022-08-12T22:32:11.402Z,93.16
2022-08-12T22:34:39.336Z,94.14
2022-08-12T22:37:11.362Z,94.57
2022-08-12T22:39:46.433Z,95.02
2022-08-12T22:42:33.966Z,95.24
2022-08-12T22:45:19.159Z,95.75
2022-08-12T22:47:54.320Z,95.19
2022-08-12T22:50:27.681Z,95.75
2022-08-12T22:53:15.033Z,97.14
2022-08-12T22:55:59.767Z,98.24
2022-08-12T22:58:34.124Z,99.67
2022-08-12T23:01:02.550Z,100.00
2022-08-12T23:03:47.095Z,100.00
2022-08-12T23:06:16.749Z,100.00
2022-08-12T23:08:43.515Z,100.00
2022-08-12T23:11:10.360Z,100.00
2022-08-12T23:13:47.296Z,100.00
2022-08-12T23:16:18.300Z,100.00
2022-08-12T23:18:59.880Z,100.00
2022-08-12T23:21:40.527Z,100.00
2022-08-12T23:24:17.077Z,100.00
2022-08-12T23:27:03.919Z,100.00
2022-08-12T23:29:43.103Z,100.00
2022-08-12T23:32:35.366Z,100.00
2022-08-12T23:35:06.545Z,100.00
2022-08-12T23:37:46.638Z,100.00
2022-08-12T23:40:18.201Z,100.00
2022-08-12T23:42:46.558Z,100.00
2022-08-12T23:45:20.362Z,100.00
2022-08-12T23:48:00.916Z,100.00
2022-08-12T23:50:34.318Z,100.00
2022-08-12T23:53:06.683Z,100.00
2022-08-12T23:55:49.881Z,100.00
2022-08-12T23:58:25.956Z,100.00
